sensor_id;sensor_type;location;lat;lon;timestamp;temperature;humidity
73643;DHT22;61938;48.652;9.292;2022-10-13T00:00:44;8.10;99.90
73643;DHT22;61938;48.652;9.292;2022-10-13T00:03:10;8.10;99.90
73643;DHT22;61938;48.652;9.292;2022-10-13T00:05:40;8.10;99.90
73643;DHT22;61938;48.652;9.292;2022-10-13T00:08:06;8.20;99.90
73643;DHT22;61938;48.652;9.292;2022-10-13T00:10:35;8.20;99.90
73643;DHT22;61938;48.652;9.292;2022-10-13T00:13:01;8.10;99.90
73643;DHT22;61938;48.652;9.292;2022-10-13T00:15:26;8.10;99.90
73643;DHT22;61938;48.652;9.292;2022-10-13T00:17:52;8.20;99.90
73643;DHT22;61938;48.652;9.292;2022-10-13T00:20:17;8.30;99.90
73643;DHT22;61938;48.652;9.292;2022-10-13T00:22:43;8.50;99.90
73643;DHT22;61938;48.652;9.292;2022-10-13T00:25:08;8.50;99.90
73643;DHT22;61938;48.652;9.292;2022-10-13T00:27:34;8.60;99.90
73643;DHT22;61938;48.652;9.292;2022-10-13T00:29:59;8.60;99.90
73643;DHT22;61938;48.652;9.292;2022-10-13T00:32:25;8.60;99.90
73643;DHT22;61938;48.652;9.292;2022-10-13T00:34:50;8.60;99.90
73643;DHT22;61938;48.652;9.292;2022-10-13T00:37:16;8.50;99.90
73643;DHT22;61938;48.652;9.292;2022-10-13T00:39:41;8.50;99.90
73643;DHT22;61938;48.652;9.292;2022-10-13T00:42:11;8.50;99.90
73643;DHT22;61938;48.652;9.292;2022-10-13T00:45:06;9.70;99.90
73643;DHT22;61938;48.652;9.292;2022-10-13T00:47:42;8.60;99.90
73643;DHT22;61938;48.652;9.292;2022-10-13T00:50:33;8.50;99.90
73643;DHT22;61938;48.652;9.292;2022-10-13T00:53:00;8.60;99.90
73643;DHT22;61938;48.652;9.292;2022-10-13T00:55:29;8.60;99.90
73643;DHT22;61938;48.652;9.292;2022-10-13T00:57:58;10.50;99.90
73643;DHT22;61938;48.652;9.292;2022-10-13T01:00:26;8.60;99.90
73643;DHT22;61938;48.652;9.292;2022-10-13T01:02:52;8.60;99.90
73643;DHT22;61938;48.652;9.292;2022-10-13T01:05:18;8.70;99.90
73643;DHT22;61938;48.652;9.292;2022-10-13T01:07:46;8.80;99.90
73643;DHT22;61938;48.652;9.292;2022-10-13T01:13:06;8.90;99.90
73643;DHT22;61938;48.652;9.292;2022-10-13T01:15:55;9.40;99.90
73643;DHT22;61938;48.652;9.292;2022-10-13T01:18:44;9.10;99.90
73643;DHT22;61938;48.652;9.292;2022-10-13T01:26:57;9.30;99.90
73643;DHT22;61938;48.652;9.292;2022-10-13T01:32:05;9.30;99.90
73643;DHT22;61938;48.652;9.292;2022-10-13T01:34:51;9.40;99.90
73643;DHT22;61938;48.652;9.292;2022-10-13T01:37:42;9.40;99.90
73643;DHT22;61938;48.652;9.292;2022-10-13T01:40:21;9.50;99.90
73643;DHT22;61938;48.652;9.292;2022-10-13T01:43:03;9.50;99.90
73643;DHT22;61938;48.652;9.292;2022-10-13T01:45:39;9.50;99.90
73643;DHT22;61938;48.652;9.292;2022-10-13T01:48:07;9.60;99.90
73643;DHT22;61938;48.652;9.292;2022-10-13T01:50:36;9.60;99.90
73643;DHT22;61938;48.652;9.292;2022-10-13T01:53:03;9.60;99.90
73643;DHT22;61938;48.652;9.292;2022-10-13T01:55:29;9.60;99.90
73643;DHT22;61938;48.652;9.292;2022-10-13T01:57:55;9.70;99.90
73643;DHT22;61938;48.652;9.292;2022-10-13T02:00:21;9.60;99.90
73643;DHT22;61938;48.652;9.292;2022-10-13T02:02:58;9.70;99.90
73643;DHT22;61938;48.652;9.292;2022-10-13T02:05:48;9.80;99.90
73643;DHT22;61938;48.652;9.292;2022-10-13T02:08:32;9.90;99.90
73643;DHT22;61938;48.652;9.292;2022-10-13T02:11:13;9.90;99.90
73643;DHT22;61938;48.652;9.292;2022-10-13T02:16:27;10.00;99.90
73643;DHT22;61938;48.652;9.292;2022-10-13T02:18:55;10.00;99.90
73643;DHT22;61938;48.652;9.292;2022-10-13T02:21:21;10.00;99.90
73643;DHT22;61938;48.652;9.292;2022-10-13T02:23:47;10.00;99.90
73643;DHT22;61938;48.652;9.292;2022-10-13T02:26:13;10.10;99.90
73643;DHT22;61938;48.652;9.292;2022-10-13T02:28:39;11.20;99.90
73643;DHT22;61938;48.652;9.292;2022-10-13T02:31:07;10.10;99.90
73643;DHT22;61938;48.652;9.292;2022-10-13T02:33:33;10.20;99.90
73643;DHT22;61938;48.652;9.292;2022-10-13T02:35:58;10.20;99.90
73643;DHT22;61938;48.652;9.292;2022-10-13T02:38:24;10.20;99.90
73643;DHT22;61938;48.652;9.292;2022-10-13T02:40:50;10.20;99.90
73643;DHT22;61938;48.652;9.292;2022-10-13T02:43:15;10.30;99.90
73643;DHT22;61938;48.652;9.292;2022-10-13T02:45:41;10.20;99.90
73643;DHT22;61938;48.652;9.292;2022-10-13T02:48:06;10.20;99.90
73643;DHT22;61938;48.652;9.292;2022-10-13T02:50:32;10.20;99.90
73643;DHT22;61938;48.652;9.292;2022-10-13T02:52:58;10.20;99.90
73643;DHT22;61938;48.652;9.292;2022-10-13T02:55:23;10.20;99.90
73643;DHT22;61938;48.652;9.292;2022-10-13T02:57:49;10.20;99.90
73643;DHT22;61938;48.652;9.292;2022-10-13T03:00:15;10.30;99.90
73643;DHT22;61938;48.652;9.292;2022-10-13T03:02:41;11.30;99.90
73643;DHT22;61938;48.652;9.292;2022-10-13T03:05:08;10.20;99.90
73643;DHT22;61938;48.652;9.292;2022-10-13T03:07:33;10.30;99.90
73643;DHT22;61938;48.652;9.292;2022-10-13T03:09:59;10.30;99.90
73643;DHT22;61938;48.652;9.292;2022-10-13T03:12:24;10.30;99.90
73643;DHT22;61938;48.652;9.292;2022-10-13T03:14:50;10.20;99.90
73643;DHT22;61938;48.652;9.292;2022-10-13T03:17:16;10.30;99.90
73643;DHT22;61938;48.652;9.292;2022-10-13T03:19:41;10.20;99.90
73643;DHT22;61938;48.652;9.292;2022-10-13T03:22:07;10.30;99.90
73643;DHT22;61938;48.652;9.292;2022-10-13T03:24:32;10.30;99.90
73643;DHT22;61938;48.652;9.292;2022-10-13T03:26:58;10.30;99.90
73643;DHT22;61938;48.652;9.292;2022-10-13T03:29:23;10.30;99.90
73643;DHT22;61938;48.652;9.292;2022-10-13T03:31:49;10.20;99.90
73643;DHT22;61938;48.652;9.292;2022-10-13T03:34:15;10.20;99.90
73643;DHT22;61938;48.652;9.292;2022-10-13T03:36:41;10.20;99.90
73643;DHT22;61938;48.652;9.292;2022-10-13T03:39:07;10.20;99.90
73643;DHT22;61938;48.652;9.292;2022-10-13T03:41:32;10.20;99.90
73643;DHT22;61938;48.652;9.292;2022-10-13T03:43:58;10.10;99.90
73643;DHT22;61938;48.652;9.292;2022-10-13T03:46:27;10.20;99.90
73643;DHT22;61938;48.652;9.292;2022-10-13T03:48:53;10.10;99.90
73643;DHT22;61938;48.652;9.292;2022-10-13T03:51:20;10.20;99.90
73643;DHT22;61938;48.652;9.292;2022-10-13T03:53:47;10.10;99.90
73643;DHT22;61938;48.652;9.292;2022-10-13T03:56:15;10.20;99.90
73643;DHT22;61938;48.652;9.292;2022-10-13T03:58:42;10.10;99.90
73643;DHT22;61938;48.652;9.292;2022-10-13T04:01:07;10.20;99.90
73643;DHT22;61938;48.652;9.292;2022-10-13T04:03:34;10.20;99.90
73643;DHT22;61938;48.652;9.292;2022-10-13T04:06:03;10.20;99.90
73643;DHT22;61938;48.652;9.292;2022-10-13T04:08:30;10.20;99.90
73643;DHT22;61938;48.652;9.292;2022-10-13T04:11:00;10.20;99.90
73643;DHT22;61938;48.652;9.292;2022-10-13T04:13:26;10.30;99.90
73643;DHT22;61938;48.652;9.292;2022-10-13T04:15:51;10.30;99.90
73643;DHT22;61938;48.652;9.292;2022-10-13T04:18:17;10.30;99.90
73643;DHT22;61938;48.652;9.292;2022-10-13T04:20:42;10.30;99.90
73643;DHT22;61938;48.652;9.292;2022-10-13T04:23:08;10.30;99.90
73643;DHT22;61938;48.652;9.292;2022-10-13T04:25:35;10.30;99.90
73643;DHT22;61938;48.652;9.292;2022-10-13T04:28:03;10.30;99.90
73643;DHT22;61938;48.652;9.292;2022-10-13T04:30:28;10.30;99.90
73643;DHT22;61938;48.652;9.292;2022-10-13T04:32:54;10.30;99.90
73643;DHT22;61938;48.652;9.292;2022-10-13T04:35:19;10.40;99.90
73643;DHT22;61938;48.652;9.292;2022-10-13T04:37:45;10.40;99.90
73643;DHT22;61938;48.652;9.292;2022-10-13T04:40:11;10.40;99.90
73643;DHT22;61938;48.652;9.292;2022-10-13T04:42:36;10.40;99.90
73643;DHT22;61938;48.652;9.292;2022-10-13T04:45:02;10.40;99.90
73643;DHT22;61938;48.652;9.292;2022-10-13T04:47:28;10.50;99.90
73643;DHT22;61938;48.652;9.292;2022-10-13T04:49:53;10.50;99.90
73643;DHT22;61938;48.652;9.292;2022-10-13T04:52:19;10.50;99.90
73643;DHT22;61938;48.652;9.292;2022-10-13T04:54:44;10.50;99.90
73643;DHT22;61938;48.652;9.292;2022-10-13T04:57:10;10.50;99.90
73643;DHT22;61938;48.652;9.292;2022-10-13T04:59:35;10.50;99.90
73643;DHT22;61938;48.652;9.292;2022-10-13T05:02:01;10.40;99.90
73643;DHT22;61938;48.652;9.292;2022-10-13T05:04:27;10.40;99.90
73643;DHT22;61938;48.652;9.292;2022-10-13T05:06:53;10.40;99.90
73643;DHT22;61938;48.652;9.292;2022-10-13T05:09:18;10.40;99.90
73643;DHT22;61938;48.652;9.292;2022-10-13T05:11:45;10.40;99.90
73643;DHT22;61938;48.652;9.292;2022-10-13T05:14:10;11.00;99.90
73643;DHT22;61938;48.652;9.292;2022-10-13T05:16:36;10.30;99.90
73643;DHT22;61938;48.652;9.292;2022-10-13T05:19:01;10.30;99.90
73643;DHT22;61938;48.652;9.292;2022-10-13T05:21:28;10.20;99.90
73643;DHT22;61938;48.652;9.292;2022-10-13T05:23:55;10.20;99.90
73643;DHT22;61938;48.652;9.292;2022-10-13T05:26:23;10.20;99.90
73643;DHT22;61938;48.652;9.292;2022-10-13T05:28:52;10.10;99.90
73643;DHT22;61938;48.652;9.292;2022-10-13T05:31:22;10.10;99.90
73643;DHT22;61938;48.652;9.292;2022-10-13T05:33:48;10.10;99.90
73643;DHT22;61938;48.652;9.292;2022-10-13T05:36:17;10.10;99.90
73643;DHT22;61938;48.652;9.292;2022-10-13T05:38:42;10.00;99.90
73643;DHT22;61938;48.652;9.292;2022-10-13T05:41:11;10.00;99.90
73643;DHT22;61938;48.652;9.292;2022-10-13T05:43:38;10.00;99.90
73643;DHT22;61938;48.652;9.292;2022-10-13T05:46:04;10.10;99.90
73643;DHT22;61938;48.652;9.292;2022-10-13T05:48:30;9.80;99.90
73643;DHT22;61938;48.652;9.292;2022-10-13T05:50:58;10.10;99.90
73643;DHT22;61938;48.652;9.292;2022-10-13T05:53:26;10.00;99.90
73643;DHT22;61938;48.652;9.292;2022-10-13T05:55:54;10.00;99.90
73643;DHT22;61938;48.652;9.292;2022-10-13T05:58:21;10.00;99.90
73643;DHT22;61938;48.652;9.292;2022-10-13T06:00:48;9.90;99.90
73643;DHT22;61938;48.652;9.292;2022-10-13T06:03:16;10.10;99.90
73643;DHT22;61938;48.652;9.292;2022-10-13T06:05:43;10.10;99.90
73643;DHT22;61938;48.652;9.292;2022-10-13T06:08:12;10.10;99.90
73643;DHT22;61938;48.652;9.292;2022-10-13T06:10:39;10.20;99.90
73643;DHT22;61938;48.652;9.292;2022-10-13T06:13:05;10.20;99.90
73643;DHT22;61938;48.652;9.292;2022-10-13T06:15:31;10.40;99.90
73643;DHT22;61938;48.652;9.292;2022-10-13T06:17:57;10.40;99.90
73643;DHT22;61938;48.652;9.292;2022-10-13T06:20:22;10.40;99.90
73643;DHT22;61938;48.652;9.292;2022-10-13T06:22:48;10.50;99.90
73643;DHT22;61938;48.652;9.292;2022-10-13T06:25:15;10.60;99.90
73643;DHT22;61938;48.652;9.292;2022-10-13T06:27:40;10.60;99.90
73643;DHT22;61938;48.652;9.292;2022-10-13T06:30:07;10.70;99.90
73643;DHT22;61938;48.652;9.292;2022-10-13T06:32:33;10.80;99.90
73643;DHT22;61938;48.652;9.292;2022-10-13T06:34:58;11.80;99.90
73643;DHT22;61938;48.652;9.292;2022-10-13T06:37:24;11.10;99.90
73643;DHT22;61938;48.652;9.292;2022-10-13T06:39:50;11.10;99.90
73643;DHT22;61938;48.652;9.292;2022-10-13T06:42:15;11.60;99.90
73643;DHT22;61938;48.652;9.292;2022-10-13T06:44:41;11.00;99.90
73643;DHT22;61938;48.652;9.292;2022-10-13T06:47:07;11.00;99.90
73643;DHT22;61938;48.652;9.292;2022-10-13T06:49:33;11.00;99.90
73643;DHT22;61938;48.652;9.292;2022-10-13T06:51:58;10.80;99.90
73643;DHT22;61938;48.652;9.292;2022-10-13T06:54:24;11.00;99.90
73643;DHT22;61938;48.652;9.292;2022-10-13T06:56:49;12.10;99.90
73643;DHT22;61938;48.652;9.292;2022-10-13T06:59:15;11.50;99.90
73643;DHT22;61938;48.652;9.292;2022-10-13T07:01:41;11.00;99.90
73643;DHT22;61938;48.652;9.292;2022-10-13T07:04:07;11.00;99.90
73643;DHT22;61938;48.652;9.292;2022-10-13T07:06:33;11.00;99.90
73643;DHT22;61938;48.652;9.292;2022-10-13T07:09:02;11.10;99.90
73643;DHT22;61938;48.652;9.292;2022-10-13T07:11:28;11.20;99.90
73643;DHT22;61938;48.652;9.292;2022-10-13T07:13:54;11.10;99.90
73643;DHT22;61938;48.652;9.292;2022-10-13T07:16:19;11.20;99.90
73643;DHT22;61938;48.652;9.292;2022-10-13T07:18:46;11.20;99.90
73643;DHT22;61938;48.652;9.292;2022-10-13T07:21:12;11.20;99.90
73643;DHT22;61938;48.652;9.292;2022-10-13T07:23:37;11.30;99.90
73643;DHT22;61938;48.652;9.292;2022-10-13T07:26:12;11.30;99.90
73643;DHT22;61938;48.652;9.292;2022-10-13T07:28:37;11.30;99.90
73643;DHT22;61938;48.652;9.292;2022-10-13T07:31:13;11.00;99.90
73643;DHT22;61938;48.652;9.292;2022-10-13T07:33:40;11.40;99.90
73643;DHT22;61938;48.652;9.292;2022-10-13T07:36:06;11.40;99.90
73643;DHT22;61938;48.652;9.292;2022-10-13T07:38:32;11.50;99.90
73643;DHT22;61938;48.652;9.292;2022-10-13T07:41:02;11.50;99.90
73643;DHT22;61938;48.652;9.292;2022-10-13T07:43:28;11.50;99.90
73643;DHT22;61938;48.652;9.292;2022-10-13T07:45:54;11.20;99.90
73643;DHT22;61938;48.652;9.292;2022-10-13T07:48:19;11.40;99.90
73643;DHT22;61938;48.652;9.292;2022-10-13T07:50:45;11.40;99.90
73643;DHT22;61938;48.652;9.292;2022-10-13T07:53:11;11.50;99.90
73643;DHT22;61938;48.652;9.292;2022-10-13T07:55:36;11.60;99.90
73643;DHT22;61938;48.652;9.292;2022-10-13T07:58:02;11.70;99.90
73643;DHT22;61938;48.652;9.292;2022-10-13T08:00:28;12.40;99.90
73643;DHT22;61938;48.652;9.292;2022-10-13T08:02:53;11.90;99.90
73643;DHT22;61938;48.652;9.292;2022-10-13T08:05:19;12.10;99.90
73643;DHT22;61938;48.652;9.292;2022-10-13T08:07:45;13.50;99.90
73643;DHT22;61938;48.652;9.292;2022-10-13T08:10:10;12.10;99.90
73643;DHT22;61938;48.652;9.292;2022-10-13T08:12:36;14.10;99.90
73643;DHT22;61938;48.652;9.292;2022-10-13T08:15:03;12.80;99.90
73643;DHT22;61938;48.652;9.292;2022-10-13T08:17:29;12.90;99.90
73643;DHT22;61938;48.652;9.292;2022-10-13T08:19:55;13.00;99.90
73643;DHT22;61938;48.652;9.292;2022-10-13T08:22:21;13.00;99.90
73643;DHT22;61938;48.652;9.292;2022-10-13T08:24:46;14.60;99.90
73643;DHT22;61938;48.652;9.292;2022-10-13T08:27:19;15.20;99.90
73643;DHT22;61938;48.652;9.292;2022-10-13T08:29:46;13.10;99.90
73643;DHT22;61938;48.652;9.292;2022-10-13T08:32:11;13.90;99.90
73643;DHT22;61938;48.652;9.292;2022-10-13T08:34:37;13.20;99.90
73643;DHT22;61938;48.652;9.292;2022-10-13T08:37:03;13.20;99.90
73643;DHT22;61938;48.652;9.292;2022-10-13T08:39:32;13.30;99.90
73643;DHT22;61938;48.652;9.292;2022-10-13T08:41:57;13.30;99.90
73643;DHT22;61938;48.652;9.292;2022-10-13T08:44:40;13.10;99.90
73643;DHT22;61938;48.652;9.292;2022-10-13T08:49:44;13.50;99.90
73643;DHT22;61938;48.652;9.292;2022-10-13T08:52:22;13.60;99.90
73643;DHT22;61938;48.652;9.292;2022-10-13T08:54:48;13.60;99.90
73643;DHT22;61938;48.652;9.292;2022-10-13T08:57:14;13.70;99.90
73643;DHT22;61938;48.652;9.292;2022-10-13T08:59:40;13.80;99.90
73643;DHT22;61938;48.652;9.292;2022-10-13T09:02:14;13.90;99.90
73643;DHT22;61938;48.652;9.292;2022-10-13T09:04:43;13.90;99.90
73643;DHT22;61938;48.652;9.292;2022-10-13T09:07:12;14.00;99.90
73643;DHT22;61938;48.652;9.292;2022-10-13T09:09:39;14.00;99.90
73643;DHT22;61938;48.652;9.292;2022-10-13T09:12:05;14.10;99.90
73643;DHT22;61938;48.652;9.292;2022-10-13T09:14:35;14.10;99.90
73643;DHT22;61938;48.652;9.292;2022-10-13T09:17:19;14.10;99.90
73643;DHT22;61938;48.652;9.292;2022-10-13T09:25:08;14.30;99.90
73643;DHT22;61938;48.652;9.292;2022-10-13T09:27:50;14.40;99.90
73643;DHT22;61938;48.652;9.292;2022-10-13T09:33:22;14.40;99.90
73643;DHT22;61938;48.652;9.292;2022-10-13T09:36:05;15.70;99.90
73643;DHT22;61938;48.652;9.292;2022-10-13T09:38:32;14.50;99.90
73643;DHT22;61938;48.652;9.292;2022-10-13T09:41:20;14.50;99.90
73643;DHT22;61938;48.652;9.292;2022-10-13T09:46:24;14.60;99.90
73643;DHT22;61938;48.652;9.292;2022-10-13T09:48:53;14.60;99.90
73643;DHT22;61938;48.652;9.292;2022-10-13T09:51:39;15.80;99.90
73643;DHT22;61938;48.652;9.292;2022-10-13T09:54:21;14.70;99.90
73643;DHT22;61938;48.652;9.292;2022-10-13T09:56:52;14.70;99.90
73643;DHT22;61938;48.652;9.292;2022-10-13T09:59:37;14.70;99.90
73643;DHT22;61938;48.652;9.292;2022-10-13T10:02:26;14.60;99.90
73643;DHT22;61938;48.652;9.292;2022-10-13T10:04:58;14.60;99.90
73643;DHT22;61938;48.652;9.292;2022-10-13T10:07:28;14.80;99.90
73643;DHT22;61938;48.652;9.292;2022-10-13T10:09:57;14.60;99.90
73643;DHT22;61938;48.652;9.292;2022-10-13T10:12:27;14.60;99.90
73643;DHT22;61938;48.652;9.292;2022-10-13T10:14:54;14.70;99.90
73643;DHT22;61938;48.652;9.292;2022-10-13T10:17:30;14.60;99.90
73643;DHT22;61938;48.652;9.292;2022-10-13T10:20:00;14.70;99.90
73643;DHT22;61938;48.652;9.292;2022-10-13T10:31:44;14.90;99.90
73643;DHT22;61938;48.652;9.292;2022-10-13T10:45:08;14.90;99.90
73643;DHT22;61938;48.652;9.292;2022-10-13T10:47:42;14.90;99.90
73643;DHT22;61938;48.652;9.292;2022-10-13T10:50:14;14.90;99.90
73643;DHT22;61938;48.652;9.292;2022-10-13T10:55:51;15.00;99.90
73643;DHT22;61938;48.652;9.292;2022-10-13T10:58:30;15.10;99.90
73643;DHT22;61938;48.652;9.292;2022-10-13T11:01:05;15.10;99.90
73643;DHT22;61938;48.652;9.292;2022-10-13T11:06:35;15.20;99.90
73643;DHT22;61938;48.652;9.292;2022-10-13T11:09:02;15.20;99.90
73643;DHT22;61938;48.652;9.292;2022-10-13T11:11:29;15.30;99.90
73643;DHT22;61938;48.652;9.292;2022-10-13T11:19:43;15.40;99.90
73643;DHT22;61938;48.652;9.292;2022-10-13T11:43:34;15.50;99.90
73643;DHT22;61938;48.652;9.292;2022-10-13T11:46:22;15.60;99.90
73643;DHT22;61938;48.652;9.292;2022-10-13T11:51:56;15.80;99.90
73643;DHT22;61938;48.652;9.292;2022-10-13T11:54:35;15.90;99.90
73643;DHT22;61938;48.652;9.292;2022-10-13T11:57:21;15.90;99.90
73643;DHT22;61938;48.652;9.292;2022-10-13T11:59:49;15.90;99.90
73643;DHT22;61938;48.652;9.292;2022-10-13T12:02:19;15.90;99.90
73643;DHT22;61938;48.652;9.292;2022-10-13T12:05:05;16.00;99.90
73643;DHT22;61938;48.652;9.292;2022-10-13T12:07:36;16.10;99.90
73643;DHT22;61938;48.652;9.292;2022-10-13T12:10:06;16.10;99.90
73643;DHT22;61938;48.652;9.292;2022-10-13T12:12:36;16.00;99.90
73643;DHT22;61938;48.652;9.292;2022-10-13T12:15:02;16.70;99.90
73643;DHT22;61938;48.652;9.292;2022-10-13T12:17:33;16.00;99.90
73643;DHT22;61938;48.652;9.292;2022-10-13T12:20:19;16.10;99.90
73643;DHT22;61938;48.652;9.292;2022-10-13T12:22:49;16.00;99.90
73643;DHT22;61938;48.652;9.292;2022-10-13T12:25:17;17.30;99.90
73643;DHT22;61938;48.652;9.292;2022-10-13T12:27:55;16.00;99.90
73643;DHT22;61938;48.652;9.292;2022-10-13T12:30:29;16.10;99.90
73643;DHT22;61938;48.652;9.292;2022-10-13T12:32:58;16.30;99.90
73643;DHT22;61938;48.652;9.292;2022-10-13T12:35:27;16.50;99.90
73643;DHT22;61938;48.652;9.292;2022-10-13T12:37:54;16.80;99.90
73643;DHT22;61938;48.652;9.292;2022-10-13T12:40:26;16.70;99.90
73643;DHT22;61938;48.652;9.292;2022-10-13T12:42:54;16.70;99.90
73643;DHT22;61938;48.652;9.292;2022-10-13T12:45:27;16.60;99.90
73643;DHT22;61938;48.652;9.292;2022-10-13T12:48:00;16.60;99.90
73643;DHT22;61938;48.652;9.292;2022-10-13T12:53:20;16.40;99.90
73643;DHT22;61938;48.652;9.292;2022-10-13T12:55:58;16.60;99.90
73643;DHT22;61938;48.652;9.292;2022-10-13T12:58:43;16.80;99.90
73643;DHT22;61938;48.652;9.292;2022-10-13T13:01:50;17.40;99.90
73643;DHT22;61938;48.652;9.292;2022-10-13T13:04:52;17.10;99.90
73643;DHT22;61938;48.652;9.292;2022-10-13T13:07:37;17.70;99.90
73643;DHT22;61938;48.652;9.292;2022-10-13T13:10:24;17.00;99.90
73643;DHT22;61938;48.652;9.292;2022-10-13T13:12:51;18.10;99.90
73643;DHT22;61938;48.652;9.292;2022-10-13T13:17:52;17.20;99.90
73643;DHT22;61938;48.652;9.292;2022-10-13T13:22:47;17.60;99.90
73643;DHT22;61938;48.652;9.292;2022-10-13T13:25:15;17.60;99.90
73643;DHT22;61938;48.652;9.292;2022-10-13T13:27:40;17.60;99.90
73643;DHT22;61938;48.652;9.292;2022-10-13T13:30:15;17.50;99.90
73643;DHT22;61938;48.652;9.292;2022-10-13T13:32:41;17.40;99.90
73643;DHT22;61938;48.652;9.292;2022-10-13T13:35:09;17.30;99.90
73643;DHT22;61938;48.652;9.292;2022-10-13T13:37:49;17.20;99.90
73643;DHT22;61938;48.652;9.292;2022-10-13T13:40:20;17.20;99.90
73643;DHT22;61938;48.652;9.292;2022-10-13T13:42:46;17.10;99.90
73643;DHT22;61938;48.652;9.292;2022-10-13T13:45:13;17.00;99.90
73643;DHT22;61938;48.652;9.292;2022-10-13T13:47:39;16.90;99.90
73643;DHT22;61938;48.652;9.292;2022-10-13T13:50:22;16.90;99.90
73643;DHT22;61938;48.652;9.292;2022-10-13T13:53:20;16.90;99.90
73643;DHT22;61938;48.652;9.292;2022-10-13T13:55:46;16.90;99.90
73643;DHT22;61938;48.652;9.292;2022-10-13T13:58:12;17.70;99.90
73643;DHT22;61938;48.652;9.292;2022-10-13T14:00:38;17.60;99.90
73643;DHT22;61938;48.652;9.292;2022-10-13T14:03:12;16.80;99.90
73643;DHT22;61938;48.652;9.292;2022-10-13T14:05:38;16.80;99.90
73643;DHT22;61938;48.652;9.292;2022-10-13T14:08:11;16.80;99.90
73643;DHT22;61938;48.652;9.292;2022-10-13T14:10:43;18.10;99.90
73643;DHT22;61938;48.652;9.292;2022-10-13T14:13:12;16.70;99.90
73643;DHT22;61938;48.652;9.292;2022-10-13T14:15:40;18.10;99.90
73643;DHT22;61938;48.652;9.292;2022-10-13T14:18:06;17.10;99.90
73643;DHT22;61938;48.652;9.292;2022-10-13T14:20:32;17.10;99.90
73643;DHT22;61938;48.652;9.292;2022-10-13T14:22:58;17.10;99.90
73643;DHT22;61938;48.652;9.292;2022-10-13T14:25:36;17.10;99.90
73643;DHT22;61938;48.652;9.292;2022-10-13T14:28:23;17.10;99.90
73643;DHT22;61938;48.652;9.292;2022-10-13T14:30:49;17.00;99.90
73643;DHT22;61938;48.652;9.292;2022-10-13T14:33:22;18.50;99.90
73643;DHT22;61938;48.652;9.292;2022-10-13T14:36:00;16.90;99.90
73643;DHT22;61938;48.652;9.292;2022-10-13T14:38:38;16.90;99.90
73643;DHT22;61938;48.652;9.292;2022-10-13T14:41:22;15.90;99.90
73643;DHT22;61938;48.652;9.292;2022-10-13T14:44:00;16.90;99.90
73643;DHT22;61938;48.652;9.292;2022-10-13T14:46:34;16.70;99.90
73643;DHT22;61938;48.652;9.292;2022-10-13T14:49:01;16.80;99.90
73643;DHT22;61938;48.652;9.292;2022-10-13T14:51:27;16.60;99.90
73643;DHT22;61938;48.652;9.292;2022-10-13T14:53:58;16.80;99.90
73643;DHT22;61938;48.652;9.292;2022-10-13T14:56:32;16.50;99.90
73643;DHT22;61938;48.652;9.292;2022-10-13T14:59:03;16.70;99.90
73643;DHT22;61938;48.652;9.292;2022-10-13T15:01:41;16.70;99.90
73643;DHT22;61938;48.652;9.292;2022-10-13T15:04:10;16.70;99.90
73643;DHT22;61938;48.652;9.292;2022-10-13T15:06:42;16.70;99.90
73643;DHT22;61938;48.652;9.292;2022-10-13T15:09:16;16.70;99.90
73643;DHT22;61938;48.652;9.292;2022-10-13T15:11:42;17.70;99.90
73643;DHT22;61938;48.652;9.292;2022-10-13T15:14:37;16.60;99.90
73643;DHT22;61938;48.652;9.292;2022-10-13T15:17:11;16.60;99.90
73643;DHT22;61938;48.652;9.292;2022-10-13T15:19:39;16.70;99.90
73643;DHT22;61938;48.652;9.292;2022-10-13T15:22:08;16.60;99.90
73643;DHT22;61938;48.652;9.292;2022-10-13T15:24:47;17.40;99.90
73643;DHT22;61938;48.652;9.292;2022-10-13T15:27:18;16.50;99.90
73643;DHT22;61938;48.652;9.292;2022-10-13T15:29:43;15.80;99.90
73643;DHT22;61938;48.652;9.292;2022-10-13T15:32:11;17.10;99.90
73643;DHT22;61938;48.652;9.292;2022-10-13T15:34:38;16.50;99.90
73643;DHT22;61938;48.652;9.292;2022-10-13T15:37:04;16.50;99.90
73643;DHT22;61938;48.652;9.292;2022-10-13T15:39:30;16.50;99.90
73643;DHT22;61938;48.652;9.292;2022-10-13T15:41:55;16.50;99.90
73643;DHT22;61938;48.652;9.292;2022-10-13T15:44:25;16.40;99.90
73643;DHT22;61938;48.652;9.292;2022-10-13T15:46:51;16.40;99.90
73643;DHT22;61938;48.652;9.292;2022-10-13T15:49:21;16.40;99.90
73643;DHT22;61938;48.652;9.292;2022-10-13T15:51:47;16.30;99.90
73643;DHT22;61938;48.652;9.292;2022-10-13T15:54:13;16.20;99.90
73643;DHT22;61938;48.652;9.292;2022-10-13T15:56:38;16.20;99.90
73643;DHT22;61938;48.652;9.292;2022-10-13T15:59:04;16.20;99.90
73643;DHT22;61938;48.652;9.292;2022-10-13T16:01:29;16.10;99.90
73643;DHT22;61938;48.652;9.292;2022-10-13T16:03:55;16.10;99.90
73643;DHT22;61938;48.652;9.292;2022-10-13T16:06:20;16.00;99.90
73643;DHT22;61938;48.652;9.292;2022-10-13T16:08:47;16.00;99.90
73643;DHT22;61938;48.652;9.292;2022-10-13T16:11:15;16.30;99.90
73643;DHT22;61938;48.652;9.292;2022-10-13T16:13:44;15.60;99.90
73643;DHT22;61938;48.652;9.292;2022-10-13T16:16:10;15.50;99.90
73643;DHT22;61938;48.652;9.292;2022-10-13T16:18:36;15.20;99.90
73643;DHT22;61938;48.652;9.292;2022-10-13T16:21:14;15.50;99.90
73643;DHT22;61938;48.652;9.292;2022-10-13T16:23:40;15.70;99.90
73643;DHT22;61938;48.652;9.292;2022-10-13T16:26:06;15.70;99.90
73643;DHT22;61938;48.652;9.292;2022-10-13T16:28:32;15.60;99.90
73643;DHT22;61938;48.652;9.292;2022-10-13T16:31:09;15.50;99.90
73643;DHT22;61938;48.652;9.292;2022-10-13T16:33:37;15.50;99.90
73643;DHT22;61938;48.652;9.292;2022-10-13T16:36:05;16.80;99.90
73643;DHT22;61938;48.652;9.292;2022-10-13T16:38:30;15.40;99.90
73643;DHT22;61938;48.652;9.292;2022-10-13T16:40:56;15.30;99.90
73643;DHT22;61938;48.652;9.292;2022-10-13T16:43:22;15.30;99.90
73643;DHT22;61938;48.652;9.292;2022-10-13T16:45:55;15.20;99.90
73643;DHT22;61938;48.652;9.292;2022-10-13T16:48:20;15.20;99.90
73643;DHT22;61938;48.652;9.292;2022-10-13T16:50:46;15.20;99.90
73643;DHT22;61938;48.652;9.292;2022-10-13T16:53:12;15.10;99.90
73643;DHT22;61938;48.652;9.292;2022-10-13T16:55:40;15.10;99.90
73643;DHT22;61938;48.652;9.292;2022-10-13T16:58:06;15.00;99.90
73643;DHT22;61938;48.652;9.292;2022-10-13T17:00:31;15.00;99.90
73643;DHT22;61938;48.652;9.292;2022-10-13T17:02:57;15.00;99.90
73643;DHT22;61938;48.652;9.292;2022-10-13T17:05:22;14.90;99.90
73643;DHT22;61938;48.652;9.292;2022-10-13T17:07:48;14.90;99.90
73643;DHT22;61938;48.652;9.292;2022-10-13T17:10:15;14.90;99.90
73643;DHT22;61938;48.652;9.292;2022-10-13T17:12:41;14.80;99.90
73643;DHT22;61938;48.652;9.292;2022-10-13T17:15:07;14.80;99.90
73643;DHT22;61938;48.652;9.292;2022-10-13T17:17:32;14.70;99.90